createdAt,value
2023-03-19T00:02:17.222Z,27.33
2023-03-19T00:04:46.141Z,29.37
2023-03-19T00:07:13.872Z,30.43
2023-03-19T00:09:40.714Z,28.70
2023-03-19T00:12:07.933Z,30.47
2023-03-19T00:14:35.556Z,30.50
2023-03-19T00:17:02.690Z,31.13
2023-03-19T00:19:29.442Z,31.67
2023-03-19T00:21:56.863Z,29.07
2023-03-19T00:24:23.556Z,31.07
2023-03-19T00:26:50.984Z,29.73
2023-03-19T00:29:17.984Z,28.00
2023-03-19T00:31:45.372Z,29.20
2023-03-19T00:34:13.269Z,28.63
2023-03-19T00:36:40.047Z,28.77
2023-03-19T00:39:07.484Z,29.07
2023-03-19T00:41:34.355Z,27.73
2023-03-19T00:44:01.179Z,26.50
2023-03-19T00:46:27.874Z,27.37
2023-03-19T00:48:55.763Z,25.80
2023-03-19T00:51:23.831Z,31.07
2023-03-19T00:53:51.670Z,27.57
2023-03-19T00:56:19.228Z,29.60
2023-03-19T00:58:47.338Z,27.50
2023-03-19T01:01:17.614Z,24.80
2023-03-19T01:03:45.421Z,24.20
2023-03-19T01:06:12.884Z,23.50
2023-03-19T01:08:39.696Z,24.93
2023-03-19T01:11:14.213Z,26.87
2023-03-19T01:13:42.052Z,25.10
2023-03-19T01:16:09.936Z,23.70
2023-03-19T01:18:37.455Z,24.20
2023-03-19T01:21:04.581Z,24.87
2023-03-19T01:23:31.761Z,26.17
2023-03-19T01:25:58.526Z,22.77
2023-03-19T01:28:25.495Z,22.83
2023-03-19T01:30:52.416Z,22.10
2023-03-19T01:33:20.598Z,23.67
2023-03-19T01:35:48.122Z,23.73
2023-03-19T01:38:15.074Z,23.90
2023-03-19T01:40:46.199Z,23.83
2023-03-19T01:43:24.442Z,25.00
2023-03-19T01:45:55.577Z,24.30
2023-03-19T01:48:22.218Z,24.57
2023-03-19T01:50:50.730Z,24.77
2023-03-19T01:53:19.741Z,23.03
2023-03-19T01:55:47.391Z,22.90
2023-03-19T01:58:14.473Z,21.93
2023-03-19T02:00:41.911Z,21.50
2023-03-19T02:03:09.510Z,21.30
2023-03-19T02:05:37.916Z,23.50
2023-03-19T02:08:07.412Z,23.37
2023-03-19T02:10:34.705Z,22.60
2023-03-19T02:13:01.552Z,20.73
2023-03-19T02:15:28.718Z,21.20
2023-03-19T02:17:55.518Z,22.00
2023-03-19T02:20:35.161Z,18.87
2023-03-19T02:23:15.035Z,20.30
2023-03-19T02:25:47.564Z,22.03
2023-03-19T02:28:19.551Z,23.03
2023-03-19T02:30:46.249Z,20.90
2023-03-19T02:33:14.328Z,19.43
2023-03-19T02:35:42.444Z,19.07
2023-03-19T02:38:11.324Z,20.20
2023-03-19T02:41:00.827Z,20.00
2023-03-19T02:43:28.360Z,20.83
2023-03-19T02:45:55.378Z,20.10
2023-03-19T02:48:22.299Z,18.93
2023-03-19T02:50:48.975Z,18.53
2023-03-19T02:53:15.977Z,21.20
2023-03-19T02:55:43.160Z,19.43
2023-03-19T02:58:09.997Z,20.10
2023-03-19T03:00:37.521Z,19.50
2023-03-19T03:03:06.727Z,20.27
2023-03-19T03:05:34.147Z,20.10
2023-03-19T03:08:00.875Z,19.67
2023-03-19T03:10:27.848Z,16.00
2023-03-19T03:12:54.784Z,18.27
2023-03-19T03:15:21.707Z,18.60
2023-03-19T03:17:48.564Z,19.00
2023-03-19T03:20:17.688Z,19.20
2023-03-19T03:22:44.519Z,16.80
2023-03-19T03:25:12.124Z,17.20
2023-03-19T03:27:39.126Z,17.23
2023-03-19T03:30:10.664Z,17.83
2023-03-19T03:32:38.882Z,19.40
2023-03-19T03:35:08.238Z,18.30
2023-03-19T03:37:35.462Z,19.20
2023-03-19T03:40:06.745Z,20.37
2023-03-19T03:42:33.648Z,18.67
2023-03-19T03:45:00.825Z,18.50
2023-03-19T03:47:27.634Z,17.70
2023-03-19T03:49:54.355Z,17.50
2023-03-19T03:52:21.214Z,18.57
2023-03-19T03:54:47.915Z,17.50
2023-03-19T03:57:14.601Z,18.57
2023-03-19T03:59:41.897Z,19.17
2023-03-19T04:02:09.398Z,17.50
2023-03-19T04:04:36.136Z,17.53
2023-03-19T04:07:02.868Z,18.53
2023-03-19T04:09:29.604Z,18.20
2023-03-19T04:11:56.272Z,18.20
2023-03-19T04:14:22.943Z,17.93
2023-03-19T04:16:49.757Z,16.97
2023-03-19T04:19:16.889Z,19.70
2023-03-19T04:21:44.947Z,18.80
2023-03-19T04:24:11.999Z,19.03
2023-03-19T04:26:39.206Z,18.17
2023-03-19T04:29:08.242Z,19.30
2023-03-19T04:31:35.122Z,18.27
2023-03-19T04:34:01.913Z,17.97
2023-03-19T04:36:28.982Z,16.37
2023-03-19T04:38:55.884Z,17.33
2023-03-19T04:41:22.657Z,18.00
2023-03-19T04:43:49.758Z,16.70
2023-03-19T04:46:16.953Z,14.83
2023-03-19T04:48:43.802Z,15.57
2023-03-19T04:51:10.608Z,16.70
2023-03-19T04:53:38.779Z,16.43
2023-03-19T04:56:07.062Z,17.77
2023-03-19T04:58:34.406Z,17.70
2023-03-19T05:01:01.258Z,17.67
2023-03-19T05:03:28.034Z,16.30
2023-03-19T05:05:55.259Z,16.77
2023-03-19T05:08:22.016Z,15.33
2023-03-19T05:10:48.757Z,15.10
2023-03-19T05:13:16.039Z,14.40
2023-03-19T05:15:44.089Z,15.23
2023-03-19T05:18:11.382Z,15.43
2023-03-19T05:20:39.310Z,15.60
2023-03-19T05:23:06.588Z,15.30
2023-03-19T05:25:35.225Z,14.00
2023-03-19T05:28:02.787Z,14.50
2023-03-19T05:30:29.639Z,15.07
2023-03-19T05:32:57.904Z,14.13
2023-03-19T05:35:25.767Z,13.40
2023-03-19T05:37:52.581Z,12.47
2023-03-19T05:40:19.412Z,12.37
2023-03-19T05:42:46.169Z,12.77
2023-03-19T05:45:12.917Z,12.60
2023-03-19T05:47:39.975Z,12.20
2023-03-19T05:50:07.721Z,13.03
2023-03-19T05:52:34.511Z,11.67
2023-03-19T05:55:01.466Z,12.70
2023-03-19T05:57:28.301Z,13.37
2023-03-19T05:59:54.988Z,12.30
2023-03-19T06:02:22.098Z,13.13
2023-03-19T06:04:48.808Z,12.93
2023-03-19T06:07:15.629Z,12.47
2023-03-19T06:09:42.681Z,11.70
2023-03-19T06:12:09.849Z,12.27
2023-03-19T06:14:36.675Z,12.73
2023-03-19T06:17:03.691Z,13.53
2023-03-19T06:19:30.949Z,12.57
2023-03-19T06:21:57.633Z,11.80
2023-03-19T06:24:24.382Z,11.97
2023-03-19T06:26:51.167Z,12.50
2023-03-19T06:29:18.002Z,12.27
2023-03-19T06:31:44.952Z,11.23
2023-03-19T06:34:11.818Z,10.77
2023-03-19T06:36:38.638Z,9.60
2023-03-19T06:39:05.504Z,8.80
2023-03-19T06:41:32.464Z,8.73
2023-03-19T06:43:59.152Z,9.27
2023-03-19T06:46:26.128Z,8.40
2023-03-19T06:48:53.400Z,8.00
2023-03-19T06:51:20.336Z,8.47
2023-03-19T06:53:47.042Z,7.97
2023-03-19T06:56:13.730Z,7.77
2023-03-19T06:58:40.447Z,7.77
2023-03-19T07:01:07.621Z,7.90
2023-03-19T07:03:34.512Z,8.13
2023-03-19T07:06:01.262Z,7.70
2023-03-19T07:08:29.902Z,8.50
2023-03-19T07:10:57.294Z,9.63
2023-03-19T07:13:24.055Z,14.80
2023-03-19T07:15:50.928Z,14.50
2023-03-19T07:18:17.619Z,16.10
2023-03-19T07:20:44.303Z,17.30
2023-03-19T07:23:11.000Z,12.27
2023-03-19T07:25:37.774Z,10.20
2023-03-19T07:28:04.803Z,9.53
2023-03-19T07:30:32.068Z,10.13
2023-03-19T07:32:58.920Z,9.77
2023-03-19T07:35:25.661Z,10.27
2023-03-19T07:37:52.491Z,10.97
2023-03-19T07:40:19.340Z,10.00
2023-03-19T07:42:46.632Z,11.90
2023-03-19T07:45:13.554Z,12.57
2023-03-19T07:47:40.536Z,13.33
2023-03-19T07:50:07.856Z,13.80
2023-03-19T07:52:34.861Z,14.57
2023-03-19T07:55:01.642Z,13.73
2023-03-19T07:57:28.351Z,14.40
2023-03-19T07:59:55.033Z,11.67
2023-03-19T08:02:23.567Z,9.27
2023-03-19T08:04:50.774Z,7.00
2023-03-19T08:07:17.745Z,5.50
2023-03-19T08:09:44.481Z,6.03
2023-03-19T08:12:11.500Z,5.90
2023-03-19T08:14:38.244Z,5.87
2023-03-19T08:17:05.720Z,6.93
2023-03-19T08:19:32.709Z,6.90
2023-03-19T08:21:59.431Z,6.63
2023-03-19T08:24:26.470Z,5.60
2023-03-19T08:26:53.416Z,5.60
2023-03-19T08:29:20.252Z,4.73
2023-03-19T08:31:47.041Z,4.77
2023-03-19T08:34:13.790Z,4.70
2023-03-19T08:36:40.758Z,4.30
2023-03-19T08:39:07.561Z,4.87
2023-03-19T08:41:34.388Z,5.07
2023-03-19T08:44:01.199Z,4.87
2023-03-19T08:46:29.302Z,4.53
2023-03-19T08:48:56.393Z,5.00
2023-03-19T08:51:26.009Z,4.87
2023-03-19T08:53:53.396Z,4.30
2023-03-19T08:56:20.708Z,5.13
2023-03-19T08:58:47.462Z,5.10
2023-03-19T09:01:15.069Z,4.90
2023-03-19T09:03:45.002Z,5.60
2023-03-19T09:06:12.669Z,6.00
2023-03-19T09:08:39.342Z,6.20
2023-03-19T09:11:06.645Z,5.90
2023-03-19T09:13:34.008Z,5.43
2023-03-19T09:16:01.477Z,5.93
2023-03-19T09:18:28.296Z,5.40
2023-03-19T09:20:55.310Z,5.10
2023-03-19T09:23:23.068Z,4.90
2023-03-19T09:25:51.035Z,5.47
2023-03-19T09:28:18.324Z,5.13
2023-03-19T09:30:49.835Z,4.97
2023-03-19T09:33:17.679Z,5.10
2023-03-19T09:35:50.382Z,5.77
2023-03-19T09:38:17.191Z,5.60
2023-03-19T09:40:49.413Z,4.90
2023-03-19T09:43:54.925Z,5.30
2023-03-19T09:46:29.629Z,5.33
2023-03-19T09:49:03.063Z,5.53
2023-03-19T09:51:49.921Z,5.73
2023-03-19T09:54:39.322Z,5.10
2023-03-19T09:57:09.998Z,5.40
2023-03-19T09:59:37.836Z,5.13
2023-03-19T10:02:32.505Z,5.17
2023-03-19T10:05:14.319Z,4.93
2023-03-19T10:08:36.557Z,5.80
2023-03-19T10:11:19.218Z,5.90
2023-03-19T10:14:04.673Z,6.27
2023-03-19T10:16:31.581Z,5.80
2023-03-19T10:19:06.384Z,6.20
2023-03-19T10:21:42.422Z,6.30
2023-03-19T10:24:13.965Z,5.90
2023-03-19T10:26:41.847Z,6.63
2023-03-19T10:29:08.591Z,6.33
2023-03-19T10:32:05.897Z,6.83
2023-03-19T10:34:35.511Z,7.00
2023-03-19T10:37:05.935Z,6.77
2023-03-19T10:39:38.217Z,8.33
2023-03-19T10:42:33.278Z,6.50
2023-03-19T10:45:09.018Z,7.00
2023-03-19T10:47:39.584Z,6.43
2023-03-19T10:50:06.956Z,7.10
2023-03-19T10:52:37.934Z,7.13
2023-03-19T10:55:23.308Z,7.33
2023-03-19T10:57:56.168Z,7.33
2023-03-19T11:00:25.445Z,7.60
2023-03-19T11:02:54.877Z,7.97
2023-03-19T11:05:21.521Z,8.43
2023-03-19T11:07:57.391Z,8.30
2023-03-19T11:10:27.224Z,9.03
2023-03-19T11:13:00.606Z,7.63
2023-03-19T11:15:38.712Z,6.60
2023-03-19T11:18:28.265Z,7.23
2023-03-19T11:20:59.613Z,6.20
2023-03-19T11:23:31.466Z,5.87
2023-03-19T11:26:04.408Z,6.33
2023-03-19T11:28:34.343Z,5.70
2023-03-19T11:31:14.043Z,6.17
2023-03-19T11:33:55.734Z,5.90
2023-03-19T11:36:38.445Z,5.80
2023-03-19T11:39:21.449Z,5.90
2023-03-19T11:42:30.016Z,5.73
2023-03-19T11:44:59.733Z,5.23
2023-03-19T11:47:41.776Z,5.30
2023-03-19T11:50:23.166Z,5.20
2023-03-19T11:53:07.971Z,4.97
2023-03-19T11:55:54.414Z,6.00
2023-03-19T11:58:42.276Z,5.90
2023-03-19T12:01:33.260Z,6.13
2023-03-19T12:04:36.367Z,6.07
2023-03-19T12:07:50.846Z,6.30
2023-03-19T12:10:35.912Z,6.63
2023-03-19T12:13:20.663Z,7.33
2023-03-19T12:16:15.950Z,6.83
2023-03-19T12:18:45.775Z,6.90
2023-03-19T12:21:25.832Z,7.70
2023-03-19T12:24:02.247Z,6.60
2023-03-19T12:26:35.011Z,7.50
2023-03-19T12:29:24.109Z,6.80
2023-03-19T12:31:57.132Z,6.93
2023-03-19T12:34:36.088Z,7.40
2023-03-19T12:37:27.214Z,8.07
2023-03-19T12:40:20.728Z,7.90
2023-03-19T12:42:47.555Z,8.80
2023-03-19T12:45:36.765Z,7.30
2023-03-19T12:48:35.344Z,7.70
2023-03-19T12:51:11.191Z,7.53
2023-03-19T12:53:49.283Z,7.87
2023-03-19T12:56:38.472Z,7.20
2023-03-19T12:59:36.875Z,7.80
2023-03-19T13:02:06.092Z,8.20
2023-03-19T13:04:41.604Z,7.70
2023-03-19T13:07:32.293Z,7.27
2023-03-19T13:10:06.768Z,8.40
2023-03-19T13:12:38.184Z,8.80
2023-03-19T13:15:13.052Z,8.80
2023-03-19T13:18:13.481Z,9.83
2023-03-19T13:21:01.402Z,9.23
2023-03-19T13:23:32.471Z,10.70
2023-03-19T13:26:01.266Z,10.97
2023-03-19T13:28:31.769Z,10.53
2023-03-19T13:31:18.979Z,10.10
2023-03-19T13:34:01.806Z,10.00
2023-03-19T13:36:30.905Z,9.80
2023-03-19T13:39:00.493Z,9.70
2023-03-19T13:41:33.268Z,10.20
2023-03-19T13:44:23.448Z,11.60
2023-03-19T13:46:51.422Z,10.50
2023-03-19T13:49:28.197Z,9.93
2023-03-19T13:52:14.852Z,9.90
2023-03-19T13:54:45.993Z,10.57
2023-03-19T13:57:16.465Z,9.70
2023-03-19T13:59:46.761Z,10.80
2023-03-19T14:02:22.151Z,10.60
2023-03-19T14:05:02.630Z,10.97
2023-03-19T14:07:37.142Z,9.00
2023-03-19T14:10:07.843Z,9.90
2023-03-19T14:12:40.141Z,9.90
2023-03-19T14:15:09.910Z,9.20
2023-03-19T14:17:42.628Z,10.20
2023-03-19T14:20:16.702Z,10.83
2023-03-19T14:23:08.962Z,9.30
2023-03-19T14:25:54.705Z,10.73
2023-03-19T14:28:47.629Z,10.67
2023-03-19T14:31:22.446Z,9.60
2023-03-19T14:34:15.094Z,8.73
2023-03-19T14:36:53.909Z,8.97
2023-03-19T14:39:27.662Z,10.23
2023-03-19T14:42:04.948Z,8.93
2023-03-19T14:45:02.129Z,9.23
2023-03-19T14:47:56.471Z,10.17
2023-03-19T14:50:35.882Z,8.10
2023-03-19T14:53:17.628Z,8.50
2023-03-19T14:55:51.170Z,8.20
2023-03-19T14:58:20.409Z,8.47
2023-03-19T15:00:50.208Z,8.30
2023-03-19T15:03:37.004Z,8.00
2023-03-19T15:06:07.574Z,7.77
2023-03-19T15:08:39.649Z,9.30
2023-03-19T15:11:16.043Z,9.60
2023-03-19T15:14:24.452Z,8.57
2023-03-19T15:17:11.234Z,9.50
2023-03-19T15:19:39.540Z,11.13
2023-03-19T15:22:21.323Z,9.73
2023-03-19T15:24:49.151Z,10.40
2023-03-19T15:27:19.998Z,10.33
2023-03-19T15:29:49.257Z,10.27
2023-03-19T15:32:54.408Z,10.00
2023-03-19T15:35:29.485Z,10.00
2023-03-19T15:38:00.428Z,9.63
2023-03-19T15:40:30.758Z,8.87
2023-03-19T15:43:01.242Z,9.53
2023-03-19T15:45:29.737Z,7.60
2023-03-19T15:48:08.568Z,7.43
2023-03-19T15:50:40.127Z,7.90
2023-03-19T15:53:12.746Z,8.10
2023-03-19T15:55:39.758Z,10.10
2023-03-19T15:58:11.496Z,10.80
2023-03-19T16:00:41.861Z,11.10
2023-03-19T16:03:16.329Z,11.47
2023-03-19T16:05:43.421Z,12.10
2023-03-19T16:08:24.925Z,13.70
2023-03-19T16:10:52.669Z,12.27
2023-03-19T16:13:29.938Z,12.67
2023-03-19T16:16:05.352Z,16.07
2023-03-19T16:18:52.178Z,11.43
2023-03-19T16:21:27.831Z,10.63
2023-03-19T16:24:19.988Z,9.40
2023-03-19T16:26:48.450Z,10.83
2023-03-19T16:29:18.417Z,10.70
2023-03-19T16:31:51.881Z,10.40
2023-03-19T16:34:43.519Z,9.80
2023-03-19T16:37:38.262Z,9.73
2023-03-19T16:40:14.093Z,10.50
2023-03-19T16:42:42.300Z,19.47
2023-03-19T16:45:18.198Z,15.07
2023-03-19T16:47:56.991Z,10.80
2023-03-19T16:50:37.335Z,11.13
2023-03-19T16:53:10.797Z,11.67
2023-03-19T16:55:38.096Z,10.70
2023-03-19T16:58:21.789Z,11.50
2023-03-19T17:00:48.783Z,10.70
2023-03-19T17:03:18.001Z,10.33
2023-03-19T17:05:48.314Z,11.17
2023-03-19T17:08:16.022Z,12.67
2023-03-19T17:10:46.171Z,13.83
2023-03-19T17:13:21.289Z,11.83
2023-03-19T17:15:49.673Z,10.83
2023-03-19T17:18:25.266Z,10.30
2023-03-19T17:21:00.792Z,9.70
2023-03-19T17:23:28.033Z,10.77
2023-03-19T17:25:55.125Z,10.47
2023-03-19T17:28:22.029Z,10.63
2023-03-19T17:30:50.066Z,11.43
2023-03-19T17:33:28.543Z,13.40
2023-03-19T17:35:57.468Z,13.00
2023-03-19T17:38:32.430Z,11.97
2023-03-19T17:40:59.339Z,12.47
2023-03-19T17:43:26.122Z,12.97
2023-03-19T17:45:54.643Z,12.23
2023-03-19T17:48:26.477Z,12.63
2023-03-19T17:50:58.267Z,13.13
2023-03-19T17:53:25.091Z,11.97
2023-03-19T17:55:51.857Z,12.07
2023-03-19T17:58:21.169Z,12.67
2023-03-19T18:00:49.662Z,13.63
2023-03-19T18:03:21.113Z,13.80
2023-03-19T18:05:50.248Z,13.13
2023-03-19T18:08:20.792Z,13.70
2023-03-19T18:10:47.578Z,13.23
2023-03-19T18:13:14.458Z,14.47
2023-03-19T18:15:44.528Z,14.00
2023-03-19T18:18:21.098Z,14.67
2023-03-19T18:20:48.525Z,15.77
2023-03-19T18:23:16.211Z,16.63
2023-03-19T18:25:46.208Z,18.33
2023-03-19T18:28:13.354Z,18.87
2023-03-19T18:30:41.657Z,18.43
2023-03-19T18:33:19.782Z,16.90
2023-03-19T18:35:47.280Z,16.90
2023-03-19T18:38:19.991Z,16.67
2023-03-19T18:40:47.643Z,16.47
2023-03-19T18:43:16.216Z,15.73
2023-03-19T18:45:45.723Z,14.73
2023-03-19T18:48:21.292Z,16.90
2023-03-19T18:50:48.514Z,16.87
2023-03-19T18:53:17.019Z,17.67
2023-03-19T18:55:44.664Z,17.70
2023-03-19T18:58:21.734Z,17.20
2023-03-19T19:00:49.618Z,17.23
2023-03-19T19:03:19.793Z,17.93
2023-03-19T19:05:46.636Z,19.10
2023-03-19T19:08:19.432Z,18.00
2023-03-19T19:10:55.373Z,19.77
2023-03-19T19:13:30.263Z,20.13
2023-03-19T19:15:57.095Z,21.20
2023-03-19T19:18:30.592Z,21.63
2023-03-19T19:20:58.518Z,21.80
2023-03-19T19:23:30.108Z,21.57
2023-03-19T19:25:56.968Z,22.30
2023-03-19T19:28:32.628Z,21.20
2023-03-19T19:31:00.474Z,20.13
2023-03-19T19:33:31.700Z,20.80
2023-03-19T19:35:58.874Z,19.90
2023-03-19T19:38:25.624Z,20.67
2023-03-19T19:40:54.910Z,19.43
2023-03-19T19:43:24.313Z,20.50
2023-03-19T19:45:55.937Z,20.80
2023-03-19T19:48:27.993Z,19.80
2023-03-19T19:50:56.249Z,21.70
2023-03-19T19:53:29.413Z,20.17
2023-03-19T19:55:56.526Z,18.23
2023-03-19T19:58:31.452Z,19.40
2023-03-19T20:01:04.380Z,18.43
2023-03-19T20:03:33.428Z,19.80
2023-03-19T20:06:01.508Z,21.17
2023-03-19T20:08:28.817Z,19.03
2023-03-19T20:10:56.738Z,18.20
2023-03-19T20:13:25.574Z,19.20
2023-03-19T20:15:57.475Z,18.90
2023-03-19T20:18:30.770Z,18.90
2023-03-19T20:20:59.374Z,18.33
2023-03-19T20:23:26.588Z,19.70
2023-03-19T20:25:54.293Z,19.37
2023-03-19T20:28:34.145Z,19.87
2023-03-19T20:31:04.593Z,19.73
2023-03-19T20:33:32.454Z,19.13
2023-03-19T20:35:59.238Z,19.63
2023-03-19T20:38:27.437Z,20.00
2023-03-19T20:40:56.735Z,19.70
2023-03-19T20:43:28.084Z,18.97
2023-03-19T20:45:57.274Z,19.90
2023-03-19T20:48:25.695Z,20.07
2023-03-19T20:50:52.583Z,19.40
2023-03-19T20:53:19.648Z,18.50
2023-03-19T20:55:47.888Z,19.77
2023-03-19T20:58:29.517Z,18.60
2023-03-19T21:00:58.011Z,20.13
2023-03-19T21:03:27.092Z,18.37
2023-03-19T21:05:58.239Z,18.70
2023-03-19T21:08:38.970Z,17.37
2023-03-19T21:11:08.949Z,19.23
2023-03-19T21:13:35.651Z,20.50
2023-03-19T21:16:02.648Z,18.17
2023-03-19T21:18:29.474Z,20.30
2023-03-19T21:20:57.850Z,19.50
2023-03-19T21:23:35.270Z,17.63
2023-03-19T21:26:23.919Z,19.33
2023-03-19T21:29:00.189Z,20.10
2023-03-19T21:31:27.266Z,21.23
2023-03-19T21:33:55.855Z,20.70
2023-03-19T21:36:23.939Z,22.50
2023-03-19T21:38:52.491Z,20.80
2023-03-19T21:41:26.049Z,23.30
2023-03-19T21:43:56.259Z,22.33
2023-03-19T21:46:26.518Z,22.53
2023-03-19T21:48:58.124Z,22.00
2023-03-19T21:51:26.427Z,22.00
2023-03-19T21:53:53.132Z,21.23
2023-03-19T21:56:32.760Z,20.90
2023-03-19T21:59:09.699Z,21.33
2023-03-19T22:01:36.429Z,22.37
2023-03-19T22:04:03.239Z,21.40
2023-03-19T22:06:29.998Z,22.10
2023-03-19T22:08:56.920Z,22.77
2023-03-19T22:11:28.353Z,24.33
2023-03-19T22:14:19.015Z,23.57
2023-03-19T22:16:47.392Z,23.93
2023-03-19T22:19:15.833Z,23.10
2023-03-19T22:21:42.643Z,24.67
2023-03-19T22:24:09.355Z,22.57
2023-03-19T22:26:46.394Z,24.87
2023-03-19T22:29:14.898Z,23.37
2023-03-19T22:31:41.991Z,24.83
2023-03-19T22:34:16.596Z,23.27
2023-03-19T22:36:43.878Z,23.20
2023-03-19T22:39:10.581Z,23.83
2023-03-19T22:41:42.610Z,24.80
2023-03-19T22:44:32.529Z,23.10
2023-03-19T22:47:01.669Z,24.87
2023-03-19T22:49:29.694Z,25.03
2023-03-19T22:51:57.667Z,24.40
2023-03-19T22:54:24.486Z,23.90
2023-03-19T22:56:51.140Z,26.73
2023-03-19T22:59:18.567Z,24.90
2023-03-19T23:01:47.199Z,23.80
2023-03-19T23:04:22.684Z,25.20
2023-03-19T23:06:50.487Z,25.43
2023-03-19T23:09:20.300Z,26.20
2023-03-19T23:11:48.399Z,25.47
2023-03-19T23:14:28.425Z,25.00
2023-03-19T23:19:28.215Z,24.90
2023-03-19T23:21:55.416Z,24.50
2023-03-19T23:24:22.518Z,24.50
2023-03-19T23:26:50.661Z,23.43
2023-03-19T23:29:29.399Z,23.90
2023-03-19T23:31:58.589Z,24.23
2023-03-19T23:34:26.170Z,24.00
2023-03-19T23:36:53.529Z,24.97
2023-03-19T23:39:21.096Z,24.67
2023-03-19T23:41:50.843Z,24.03
2023-03-19T23:44:19.434Z,24.50
2023-03-19T23:46:49.263Z,23.70
2023-03-19T23:49:23.142Z,26.40
2023-03-19T23:51:49.846Z,23.00
2023-03-19T23:54:37.792Z,26.67
2023-03-19T23:57:07.064Z,25.20
2023-03-19T23:59:36.990Z,23.90
